Time;durP1;ratioP1;P1;durP2;ratioP2;P2;SDS_P1;SDS_P2;PMS_P1;PMS_P2;Temp;Humidity;BMP_temperature;BMP_pressure;BME280_temperature;BME280_humidity;BME280_pressure;Samples;Min_cycle;Max_cycle;Signal;HPM_P1;HPM_P2
2023/07/08 00:00:24;;;;;;;4.97;2.60;;;23.90;75.80;;;;;;4962115;28;20441;-89
2023/07/08 00:02:51;;;;;;;3.78;2.20;;;23.90;76.10;;;;;;4978159;28;20022;-89
2023/07/08 00:05:19;;;;;;;4.05;2.45;;;23.80;76.10;;;;;;4978090;28;20113;-89
2023/07/08 00:07:45;;;;;;;3.97;2.40;;;23.80;76.40;;;;;;4961877;28;20113;-91
2023/07/08 00:10:23;;;;;;;3.90;2.05;;;23.80;75.80;;;;;;4983773;28;20038;-89
2023/07/08 00:12:51;;;;;;;7.00;2.45;;;23.80;76.10;;;;;;4982319;28;20090;-89
2023/07/08 00:15:21;;;;;;;2.72;1.80;;;23.80;75.90;;;;;;4961660;28;20438;-90
2023/07/08 00:17:47;;;;;;;5.73;2.50;;;23.80;76.10;;;;;;4963721;28;20561;-88
2023/07/08 00:20:15;;;;;;;5.55;2.40;;;23.70;76.20;;;;;;4964085;28;20301;-90
2023/07/08 00:22:41;;;;;;;4.40;2.50;;;23.70;76.40;;;;;;4977280;28;20023;-90
2023/07/08 00:25:08;;;;;;;4.97;2.30;;;23.70;76.50;;;;;;4994997;28;20026;-90
2023/07/08 00:27:33;;;;;;;5.85;2.40;;;23.70;76.60;;;;;;4964083;28;20481;-90
2023/07/08 00:30:00;;;;;;;3.97;2.22;;;23.70;76.40;;;;;;4965197;28;20076;-89
2023/07/08 00:32:26;;;;;;;4.72;2.30;;;23.60;76.40;;;;;;4964856;28;20113;-88
2023/07/08 00:34:51;;;;;;;5.68;2.47;;;23.60;76.50;;;;;;4980638;28;20054;-88
2023/07/08 00:37:17;;;;;;;5.38;2.60;;;23.60;76.50;;;;;;4964611;28;20038;-89
2023/07/08 00:39:43;;;;;;;4.85;2.70;;;23.50;76.80;;;;;;4981622;28;20034;-90
2023/07/08 00:42:21;;;;;;;5.90;2.50;;;23.50;76.80;;;;;;4971632;28;20030;-92
2023/07/08 00:44:48;;;;;;;5.50;2.50;;;23.50;77.30;;;;;;4982559;28;20022;-91
2023/07/08 00:47:14;;;;;;;4.00;2.28;;;23.40;77.30;;;;;;5001449;28;20026;-91
2023/07/08 00:49:43;;;;;;;3.53;2.30;;;23.40;77.10;;;;;;4996055;28;20042;-91
2023/07/08 00:52:19;;;;;;;5.85;2.60;;;23.40;76.70;;;;;;4986499;28;20488;-89
2023/07/08 00:54:46;;;;;;;5.03;2.33;;;23.40;76.70;;;;;;4980809;28;20081;-89
2023/07/08 00:57:12;;;;;;;6.18;2.30;;;23.30;77.50;;;;;;4964592;28;20455;-89
2023/07/08 01:00:00;;;;;;;4.45;2.40;;;23.30;76.90;;;;;;4964511;28;20150;-91
2023/07/08 01:02:28;;;;;;;5.32;2.65;;;23.30;77.00;;;;;;4971254;28;20061;-90
2023/07/08 01:05:10;;;;;;;5.78;2.70;;;23.20;77.10;;;;;;4964160;28;20038;-90
2023/07/08 01:07:39;;;;;;;4.13;2.60;;;23.20;77.50;;;;;;4979807;28;20030;-90
2023/07/08 01:10:12;;;;;;;7.57;2.53;;;23.20;77.50;;;;;;4980593;28;20025;-90
2023/07/08 01:12:45;;;;;;;4.93;2.13;;;23.20;77.60;;;;;;4980412;28;20030;-90
2023/07/08 01:15:11;;;;;;;5.25;2.53;;;23.10;77.60;;;;;;4984715;28;20042;-91
2023/07/08 01:17:37;;;;;;;7.35;2.38;;;23.10;77.90;;;;;;4997462;28;20034;-91
2023/07/08 01:20:05;;;;;;;4.53;2.47;;;23.10;78.10;;;;;;4980210;28;20045;-92
2023/07/08 01:22:34;;;;;;;4.13;2.40;;;23.10;78.10;;;;;;4983289;28;20092;-91
2023/07/08 01:25:04;;;;;;;4.47;2.40;;;23.10;78.00;;;;;;4980370;28;20462;-92
2023/07/08 01:27:32;;;;;;;6.63;2.40;;;23.00;77.90;;;;;;4980424;28;20049;-92
2023/07/08 01:29:59;;;;;;;4.30;2.50;;;23.00;78.20;;;;;;4980433;28;20357;-92
2023/07/08 01:32:25;;;;;;;6.18;2.63;;;23.00;78.20;;;;;;4992463;28;20019;-91
2023/07/08 01:34:59;;;;;;;4.13;2.30;;;23.00;78.10;;;;;;4964047;28;20034;-91
2023/07/08 01:37:38;;;;;;;5.65;2.28;;;22.90;78.10;;;;;;4979636;28;20081;-92
2023/07/08 01:40:34;;;;;;;4.75;2.58;;;22.90;77.90;;;;;;4979443;28;20030;-92
2023/07/08 01:43:01;;;;;;;4.65;2.80;;;22.90;78.00;;;;;;4952065;28;20389;-91
2023/07/08 01:45:32;;;;;;;4.80;2.45;;;22.80;78.00;;;;;;4979509;28;20084;-89
2023/07/08 01:48:03;;;;;;;6.07;2.70;;;22.80;78.00;;;;;;4979690;28;20034;-89
2023/07/08 01:50:31;;;;;;;3.47;2.20;;;22.80;78.20;;;;;;4982921;28;20023;-89
2023/07/08 01:52:59;;;;;;;5.03;2.55;;;22.80;78.20;;;;;;4982172;28;20026;-89
2023/07/08 01:55:30;;;;;;;4.93;2.80;;;22.70;78.40;;;;;;4998440;28;20025;-89
2023/07/08 01:57:55;;;;;;;5.53;2.60;;;22.70;78.60;;;;;;4983270;28;20027;-91
2023/07/08 02:00:22;;;;;;;8.75;2.75;;;22.70;78.60;;;;;;4966859;28;20054;-88
2023/07/08 02:02:48;;;;;;;3.55;2.58;;;22.70;78.90;;;;;;4964486;28;20023;-88
2023/07/08 02:05:14;;;;;;;5.47;2.70;;;22.60;78.90;;;;;;4963829;28;20030;-88
2023/07/08 02:07:40;;;;;;;5.95;2.72;;;22.60;78.70;;;;;;4979896;28;20029;-88
2023/07/08 02:10:06;;;;;;;6.78;2.95;;;22.60;79.00;;;;;;4964702;28;20540;-88
2023/07/08 02:12:32;;;;;;;6.18;2.50;;;22.50;79.30;;;;;;4965541;28;20027;-89
2023/07/08 02:15:00;;;;;;;6.90;2.70;;;22.50;79.30;;;;;;4966830;28;20060;-88
2023/07/08 02:17:28;;;;;;;5.97;2.85;;;22.50;79.20;;;;;;4982677;28;20050;-90
2023/07/08 02:19:55;;;;;;;4.80;2.60;;;22.50;79.30;;;;;;4981031;28;20080;-89
2023/07/08 02:22:21;;;;;;;6.10;2.70;;;22.40;79.20;;;;;;4979930;28;20129;-90
2023/07/08 02:24:47;;;;;;;6.57;3.10;;;22.40;79.30;;;;;;4996275;28;20030;-90
2023/07/08 02:27:14;;;;;;;4.68;2.70;;;22.40;79.70;;;;;;4962955;28;20030;-89
2023/07/08 02:29:40;;;;;;;4.28;2.60;;;22.30;79.80;;;;;;4962879;28;20058;-90
2023/07/08 02:32:06;;;;;;;6.68;2.25;;;22.30;79.80;;;;;;4962398;28;20022;-89
2023/07/08 02:34:32;;;;;;;5.55;2.40;;;22.30;80.00;;;;;;4978281;28;20560;-89
2023/07/08 02:36:58;;;;;;;5.10;2.78;;;22.20;80.00;;;;;;4962345;28;20057;-89
2023/07/08 02:39:23;;;;;;;5.72;2.97;;;22.20;79.90;;;;;;4977776;28;20034;-93
2023/07/08 02:41:49;;;;;;;6.60;2.70;;;22.20;80.10;;;;;;5002349;28;20101;-94
2023/07/08 02:44:15;;;;;;;6.97;2.63;;;22.10;80.10;;;;;;4965389;28;20034;-92
2023/07/08 02:46:41;;;;;;;5.05;2.70;;;22.10;80.50;;;;;;4963568;28;20473;-93
2023/07/08 02:49:07;;;;;;;5.13;2.53;;;22.10;80.50;;;;;;4964377;28;20019;-92
2023/07/08 02:51:33;;;;;;;4.53;2.40;;;22.10;80.40;;;;;;4982335;28;20018;-92
2023/07/08 02:53:58;;;;;;;6.22;2.72;;;22.10;80.50;;;;;;4994650;28;20049;-92
2023/07/08 02:56:26;;;;;;;4.47;2.53;;;22.00;80.70;;;;;;4965098;28;20050;-89
2023/07/08 02:58:52;;;;;;;3.88;2.60;;;22.00;81.00;;;;;;4961874;28;20100;-88
2023/07/08 03:01:18;;;;;;;5.53;2.47;;;22.00;81.20;;;;;;4962025;28;20040;-88
2023/07/08 03:03:47;;;;;;;6.00;2.30;;;21.90;81.40;;;;;;4961536;28;20030;-88
2023/07/08 03:06:14;;;;;;;5.70;2.80;;;21.90;81.50;;;;;;4978316;28;20081;-88
2023/07/08 03:08:40;;;;;;;7.15;2.90;;;21.80;81.50;;;;;;4962938;28;20520;-89
2023/07/08 03:11:07;;;;;;;10.30;2.55;;;21.80;81.70;;;;;;4963006;28;20022;-88
2023/07/08 03:13:34;;;;;;;6.35;2.70;;;21.80;82.00;;;;;;4979485;28;20019;-89
2023/07/08 03:16:01;;;;;;;5.70;2.80;;;21.80;82.00;;;;;;4962404;28;20624;-90
2023/07/08 03:18:28;;;;;;;8.40;2.90;;;21.70;82.20;;;;;;4962419;28;20034;-89
2023/07/08 03:20:56;;;;;;;4.63;2.28;;;21.70;82.30;;;;;;4984147;28;20018;-89
2023/07/08 03:23:23;;;;;;;4.63;2.80;;;21.70;82.40;;;;;;4985332;28;20034;-89
2023/07/08 03:25:49;;;;;;;4.53;2.50;;;21.70;82.40;;;;;;5000746;28;20031;-89
2023/07/08 03:28:15;;;;;;;4.65;2.70;;;21.70;82.50;;;;;;4978865;28;20022;-88
2023/07/08 03:30:41;;;;;;;8.45;3.20;;;21.60;82.40;;;;;;4978180;28;20030;-89
2023/07/08 03:33:08;;;;;;;6.25;2.90;;;21.60;82.50;;;;;;4978188;28;20368;-89
2023/07/08 03:35:34;;;;;;;6.88;3.13;;;21.60;82.70;;;;;;4979063;28;20030;-89
2023/07/08 03:38:00;;;;;;;7.07;2.72;;;21.50;83.10;;;;;;4978529;28;20030;-90
2023/07/08 03:40:26;;;;;;;7.75;2.88;;;21.50;83.30;;;;;;4979352;28;20437;-89
2023/07/08 03:42:51;;;;;;;4.88;2.60;;;21.50;83.50;;;;;;4965791;28;20041;-89
2023/07/08 03:45:17;;;;;;;6.78;3.05;;;21.50;83.80;;;;;;4964285;28;20015;-92
2023/07/08 03:47:43;;;;;;;4.40;2.80;;;21.40;83.60;;;;;;4962093;28;20088;-92
2023/07/08 03:50:23;;;;;;;7.45;2.80;;;21.40;83.60;;;;;;4962365;28;20026;-92
2023/07/08 03:52:50;;;;;;;5.03;3.00;;;21.40;83.50;;;;;;4978441;28;20022;-92
2023/07/08 03:55:16;;;;;;;5.45;2.80;;;21.40;83.80;;;;;;4978301;28;20022;-92
2023/07/08 03:57:42;;;;;;;6.93;3.20;;;21.30;84.00;;;;;;4978039;28;20544;-93
2023/07/08 04:00:14;;;;;;;5.63;3.05;;;21.30;84.10;;;;;;4961092;28;20043;-93
2023/07/08 04:02:42;;;;;;;4.72;2.58;;;21.30;84.40;;;;;;4979177;28;20117;-89
2023/07/08 04:05:17;;;;;;;4.72;2.75;;;21.30;84.80;;;;;;4980131;28;20537;-89
2023/07/08 04:07:42;;;;;;;5.78;2.80;;;21.20;84.90;;;;;;4979957;28;20034;-90
2023/07/08 04:10:09;;;;;;;5.43;2.70;;;21.30;85.00;;;;;;4980515;28;20033;-89
2023/07/08 04:12:36;;;;;;;5.70;2.97;;;21.20;84.80;;;;;;4979999;28;20018;-89
2023/07/08 04:15:02;;;;;;;8.32;3.00;;;21.20;84.90;;;;;;4980296;28;20416;-89
2023/07/08 04:17:28;;;;;;;5.78;2.70;;;21.20;85.20;;;;;;4964338;28;20026;-89
2023/07/08 04:19:56;;;;;;;4.40;2.53;;;21.20;85.20;;;;;;4979993;28;20109;-90
2023/07/08 04:22:22;;;;;;;4.90;2.65;;;21.20;85.30;;;;;;4964193;28;20038;-89
2023/07/08 04:24:48;;;;;;;6.38;3.10;;;21.20;85.00;;;;;;4964076;28;20030;-89
2023/07/08 04:27:16;;;;;;;5.05;2.65;;;21.10;85.20;;;;;;4964460;28;20093;-89
2023/07/08 04:29:42;;;;;;;4.07;2.40;;;21.20;85.30;;;;;;4979450;28;20027;-90
2023/07/08 04:32:08;;;;;;;7.55;3.22;;;21.20;85.40;;;;;;4979754;28;20018;-90
2023/07/08 04:34:33;;;;;;;4.95;2.80;;;21.20;85.50;;;;;;4963712;28;20031;-89
2023/07/08 04:36:59;;;;;;;7.30;3.00;;;21.10;86.00;;;;;;4963754;28;20030;-89
2023/07/08 04:39:25;;;;;;;6.82;2.58;;;21.10;86.20;;;;;;4963603;28;20037;-90
2023/07/08 04:41:51;;;;;;;6.95;3.00;;;21.10;86.30;;;;;;4979560;28;20034;-90
2023/07/08 04:44:18;;;;;;;5.25;3.00;;;21.10;86.50;;;;;;4963293;28;20034;-90
2023/07/08 04:46:53;;;;;;;4.60;2.55;;;21.10;86.80;;;;;;4963508;28;20124;-89
2023/07/08 04:49:20;;;;;;;3.88;2.63;;;21.10;86.90;;;;;;4979283;28;20026;-90
2023/07/08 04:51:46;;;;;;;4.63;2.75;;;21.00;86.90;;;;;;4979892;28;20026;-89
2023/07/08 04:54:12;;;;;;;8.27;3.08;;;21.00;87.10;;;;;;4967516;28;20029;-89
2023/07/08 04:56:42;;;;;;;7.53;2.83;;;21.00;87.10;;;;;;4993460;28;20074;-89
2023/07/08 04:59:09;;;;;;;;;;;21.00;87.30;;;;;;4965126;28;1128643;-89
2023/07/08 05:01:34;;;;;;;6.68;2.97;;;21.00;87.70;;;;;;5003357;28;19902;-89
2023/07/08 05:04:02;;;;;;;5.53;2.70;;;21.00;87.60;;;;;;4968302;28;20053;-89
2023/07/08 05:06:28;;;;;;;5.97;2.70;;;21.00;87.70;;;;;;4980377;28;20076;-89
2023/07/08 05:08:54;;;;;;;5.55;2.95;;;21.00;87.80;;;;;;4964329;28;20030;-89
2023/07/08 05:11:19;;;;;;;4.60;2.80;;;21.00;87.90;;;;;;4964163;28;20022;-92
2023/07/08 05:13:45;;;;;;;5.65;2.75;;;21.00;87.70;;;;;;4964768;28;20022;-92
2023/07/08 05:16:11;;;;;;;5.63;2.50;;;21.00;88.00;;;;;;4964743;28;20035;-92
2023/07/08 05:18:36;;;;;;;7.65;2.88;;;21.00;88.20;;;;;;4964707;28;20092;-92
2023/07/08 05:21:03;;;;;;;7.22;2.97;;;21.00;88.40;;;;;;4964765;28;20031;-92
2023/07/08 05:23:29;;;;;;;5.10;2.83;;;21.00;88.80;;;;;;4964532;28;20541;-92
2023/07/08 05:25:54;;;;;;;6.20;2.90;;;21.00;88.80;;;;;;4964121;28;20125;-90
2023/07/08 05:28:23;;;;;;;4.88;2.50;;;20.90;88.80;;;;;;4963665;28;20033;-90
2023/07/08 05:30:53;;;;;;;8.02;3.40;;;20.90;89.00;;;;;;4964172;28;20053;-90
2023/07/08 05:33:18;;;;;;;5.32;3.17;;;20.90;89.20;;;;;;4979912;28;20053;-89
2023/07/08 05:35:45;;;;;;;6.13;2.95;;;21.00;89.40;;;;;;4979853;28;20497;-91
2023/07/08 05:38:11;;;;;;;7.10;3.15;;;20.90;89.60;;;;;;4979783;28;20037;-90
2023/07/08 05:40:36;;;;;;;3.97;2.55;;;21.00;89.60;;;;;;4979559;28;20031;-90
2023/07/08 05:43:02;;;;;;;4.75;2.90;;;21.00;89.60;;;;;;4963342;28;20518;-89
2023/07/08 05:45:28;;;;;;;6.13;3.10;;;21.00;90.10;;;;;;4963176;28;20028;-89
2023/07/08 05:47:54;;;;;;;4.90;2.90;;;21.00;89.90;;;;;;4963002;28;20046;-88
2023/07/08 05:50:19;;;;;;;7.97;2.90;;;21.10;90.10;;;;;;4979155;28;20038;-89
2023/07/08 05:52:45;;;;;;;5.88;2.90;;;21.00;90.10;;;;;;4979021;28;20023;-88
2023/07/08 05:55:11;;;;;;;3.38;2.28;;;21.10;90.30;;;;;;4963056;28;20389;-88
2023/07/08 05:57:36;;;;;;;9.50;3.55;;;21.10;90.40;;;;;;4962886;28;20022;-88
2023/07/08 06:00:03;;;;;;;4.50;2.55;;;21.10;90.40;;;;;;4963203;28;20054;-90
2023/07/08 06:02:29;;;;;;;3.63;2.08;;;21.20;90.50;;;;;;4963299;28;20030;-90
2023/07/08 06:04:55;;;;;;;5.25;3.13;;;21.20;90.50;;;;;;4964389;28;20041;-90
2023/07/08 06:07:20;;;;;;;7.38;3.35;;;21.20;90.40;;;;;;4966367;28;20030;-90
2023/07/08 06:09:46;;;;;;;4.43;2.90;;;21.30;90.50;;;;;;4966352;28;20144;-90
2023/07/08 06:12:12;;;;;;;10.57;3.00;;;21.30;90.50;;;;;;4983376;28;20018;-90
2023/07/08 06:14:38;;;;;;;5.97;2.78;;;21.30;90.50;;;;;;4966152;28;20026;-88
2023/07/08 06:17:04;;;;;;;6.53;3.00;;;21.30;90.30;;;;;;4998032;28;20029;-89
2023/07/08 06:19:30;;;;;;;5.10;2.72;;;21.40;90.20;;;;;;4997956;28;20096;-90
2023/07/08 06:21:55;;;;;;;6.45;2.78;;;21.40;90.30;;;;;;4981786;28;20481;-89
2023/07/08 06:24:21;;;;;;;5.50;2.83;;;21.40;90.30;;;;;;4964725;28;20421;-89
2023/07/08 06:26:47;;;;;;;5.63;2.80;;;21.40;90.20;;;;;;4965669;28;20021;-90
2023/07/08 06:29:12;;;;;;;6.50;2.80;;;21.40;90.20;;;;;;4981678;28;20088;-89
2023/07/08 06:31:38;;;;;;;6.13;2.90;;;21.40;90.30;;;;;;4965985;28;20112;-90
2023/07/08 06:34:04;;;;;;;5.65;2.95;;;21.50;90.30;;;;;;4981684;28;20041;-90
2023/07/08 06:36:30;;;;;;;4.53;2.53;;;21.50;90.40;;;;;;4965488;28;20449;-90
2023/07/08 06:38:56;;;;;;;7.20;3.05;;;21.50;90.40;;;;;;4981715;28;20080;-89
2023/07/08 06:41:22;;;;;;;6.82;3.05;;;21.60;90.50;;;;;;4997969;28;20464;-90
2023/07/08 06:43:48;;;;;;;5.88;3.78;;;21.60;90.50;;;;;;4981565;28;20549;-90
2023/07/08 06:46:13;;;;;;;7.47;3.03;;;21.60;90.70;;;;;;4981687;28;20029;-90
2023/07/08 06:48:40;;;;;;;6.10;3.00;;;21.70;90.90;;;;;;4965723;28;20476;-91
2023/07/08 06:51:07;;;;;;;7.53;3.17;;;21.70;90.70;;;;;;4982140;28;20030;-90
2023/07/08 06:53:32;;;;;;;7.78;4.35;;;21.70;90.60;;;;;;4981815;28;20033;-93
2023/07/08 06:55:59;;;;;;;6.88;3.50;;;21.80;90.70;;;;;;4998173;28;20029;-92
2023/07/08 06:58:24;;;;;;;5.63;3.30;;;21.80;90.80;;;;;;4966267;28;20489;-93
2023/07/08 07:00:50;;;;;;;6.00;2.95;;;21.90;90.80;;;;;;4965957;28;20040;-92
2023/07/08 07:03:16;;;;;;;7.18;3.03;;;21.90;90.70;;;;;;4958111;28;20117;-94
2023/07/08 07:05:43;;;;;;;5.20;2.97;;;22.00;90.60;;;;;;4966919;28;20118;-92
2023/07/08 07:08:09;;;;;;;4.25;2.63;;;22.00;90.50;;;;;;4989027;28;20365;-90
2023/07/08 07:10:35;;;;;;;5.13;2.85;;;22.00;90.50;;;;;;4961020;28;20027;-89
2023/07/08 07:13:01;;;;;;;6.25;3.40;;;22.10;90.40;;;;;;4958752;28;20030;-90
2023/07/08 07:15:27;;;;;;;4.43;2.80;;;22.10;90.40;;;;;;4958613;28;20120;-90
2023/07/08 07:17:52;;;;;;;10.63;3.33;;;22.20;90.40;;;;;;4974428;28;20031;-90
2023/07/08 07:20:18;;;;;;;6.45;3.00;;;22.20;90.50;;;;;;4958168;28;20058;-90
2023/07/08 07:22:44;;;;;;;6.78;2.53;;;22.30;90.70;;;;;;4963889;28;20359;-90
2023/07/08 07:25:09;;;;;;;4.47;2.80;;;22.40;90.90;;;;;;4977356;28;20030;-91
2023/07/08 07:27:35;;;;;;;5.50;2.80;;;22.40;90.90;;;;;;4942289;28;20538;-90
2023/07/08 07:30:01;;;;;;;6.18;3.10;;;22.50;90.90;;;;;;4958113;28;20027;-90
2023/07/08 07:32:26;;;;;;;4.40;2.78;;;22.50;91.30;;;;;;4958116;28;20062;-89
2023/07/08 07:34:53;;;;;;;5.35;2.72;;;22.60;91.00;;;;;;4958246;28;20162;-90
2023/07/08 07:37:21;;;;;;;5.13;2.97;;;22.60;90.90;;;;;;4957251;28;20027;-90
2023/07/08 07:39:47;;;;;;;6.55;3.33;;;22.70;90.90;;;;;;4958493;28;20015;-90
2023/07/08 07:42:15;;;;;;;5.68;2.80;;;22.70;91.00;;;;;;4958172;28;20113;-90
2023/07/08 07:44:40;;;;;;;5.97;2.83;;;22.80;91.10;;;;;;4958353;28;20030;-90
2023/07/08 07:47:07;;;;;;;4.72;2.95;;;22.80;91.20;;;;;;4942028;28;20031;-90
2023/07/08 07:49:33;;;;;;;6.70;3.35;;;22.90;91.10;;;;;;4957886;28;20118;-89
2023/07/08 07:52:00;;;;;;;6.10;3.10;;;23.00;91.00;;;;;;4957825;28;20449;-89
2023/07/08 07:54:26;;;;;;;9.43;3.63;;;23.00;91.10;;;;;;4957735;28;20023;-90
2023/07/08 07:56:53;;;;;;;6.00;2.65;;;23.10;91.00;;;;;;4958224;28;20126;-90
2023/07/08 07:59:19;;;;;;;4.53;3.00;;;23.20;90.90;;;;;;4957796;28;20043;-90
2023/07/08 08:01:44;;;;;;;5.22;3.10;;;23.20;91.00;;;;;;4974595;28;20488;-90
2023/07/08 08:04:11;;;;;;;5.65;3.25;;;23.30;90.90;;;;;;4959558;28;20035;-90
2023/07/08 08:06:36;;;;;;;7.35;3.50;;;23.30;90.80;;;;;;4977450;28;20019;-90
2023/07/08 08:09:03;;;;;;;4.95;3.53;;;23.40;90.60;;;;;;4961624;28;20027;-91
2023/07/08 08:11:29;;;;;;;7.97;4.43;;;23.50;90.50;;;;;;4961605;28;20469;-92
2023/07/08 08:13:56;;;;;;;6.93;3.60;;;23.50;90.60;;;;;;4977897;28;20014;-92
2023/07/08 08:16:21;;;;;;;6.75;3.22;;;23.60;90.70;;;;;;4978011;28;20080;-92
2023/07/08 08:18:47;;;;;;;6.95;3.80;;;23.70;90.90;;;;;;4978194;28;20428;-92
2023/07/08 08:21:13;;;;;;;5.85;3.63;;;23.80;90.70;;;;;;4963146;28;20037;-93
2023/07/08 08:23:39;;;;;;;6.88;3.55;;;23.80;90.50;;;;;;4967639;28;20026;-93
2023/07/08 08:26:04;;;;;;;5.50;2.90;;;23.90;90.60;;;;;;4976096;28;20050;-92
2023/07/08 08:28:30;;;;;;;9.57;3.58;;;23.90;90.90;;;;;;4971729;28;20121;-90
2023/07/08 08:30:56;;;;;;;6.55;3.70;;;24.00;90.80;;;;;;4961332;28;20118;-90
2023/07/08 08:33:21;;;;;;;9.45;3.35;;;24.10;90.60;;;;;;4960978;28;20030;-90
2023/07/08 08:35:47;;;;;;;7.72;3.47;;;24.10;90.40;;;;;;4961074;28;20528;-91
2023/07/08 08:38:13;;;;;;;5.13;3.65;;;24.20;90.40;;;;;;4960907;28;20038;-90
2023/07/08 08:40:42;;;;;;;8.05;3.70;;;24.20;90.20;;;;;;4960867;28;20121;-90
2023/07/08 08:43:17;;;;;;;9.88;6.93;;;24.30;90.10;;;;;;4977243;28;20026;-91
2023/07/08 08:45:59;;;;;;;6.20;4.15;;;24.40;90.00;;;;;;4978018;28;20172;-93
2023/07/08 08:48:27;;;;;;;8.30;3.50;;;24.50;89.70;;;;;;4979799;28;20377;-93
2023/07/08 08:50:56;;;;;;;5.80;3.78;;;24.50;89.40;;;;;;4998437;28;20049;-93
2023/07/08 08:53:24;;;;;;;5.78;3.50;;;24.60;89.40;;;;;;4980859;28;20018;-92
2023/07/08 08:55:57;;;;;;;6.55;3.78;;;24.60;88.80;;;;;;4970731;28;20501;-92
2023/07/08 08:58:40;;;;;;;5.80;3.72;;;24.70;88.50;;;;;;4986677;28;20026;-91
2023/07/08 09:01:13;;;;;;;5.78;3.92;;;24.80;88.50;;;;;;4996753;28;20022;-94
2023/07/08 09:04:00;;;;;;;8.30;3.85;;;24.80;88.80;;;;;;4998811;28;20026;-92
2023/07/08 09:06:28;;;;;;;7.82;4.30;;;24.90;88.90;;;;;;4999480;28;20034;-91
2023/07/08 09:09:00;;;;;;;8.43;4.03;;;25.00;89.30;;;;;;4999500;28;20018;-89
2023/07/08 09:11:47;;;;;;;8.65;4.57;;;25.00;89.30;;;;;;4999478;28;20041;-88
2023/07/08 09:14:22;;;;;;;10.68;5.10;;;25.10;89.30;;;;;;5016331;28;20022;-88
2023/07/08 09:17:19;;;;;;;6.25;3.97;;;25.10;89.30;;;;;;4998883;28;20040;-88
2023/07/08 09:19:52;;;;;;;6.35;3.75;;;25.20;89.40;;;;;;4965787;28;20180;-91
2023/07/08 09:22:21;;;;;;;6.72;4.53;;;25.20;89.70;;;;;;4999331;28;20028;-93
2023/07/08 09:24:51;;;;;;;7.38;4.00;;;25.30;89.70;;;;;;4999538;28;20033;-94
2023/07/08 09:27:17;;;;;;;;;;;25.30;89.80;;;;;;5000306;28;20018;-94
2023/07/08 09:29:43;;;;;;;7.97;4.63;;;25.40;90.00;;;;;;4984512;28;19910;-94
2023/07/08 09:32:22;;;;;;;15.00;9.07;;;25.40;90.30;;;;;;4986544;28;20011;-94
2023/07/08 09:35:14;;;;;;;11.63;7.00;;;25.50;90.00;;;;;;5011632;28;20102;-94
2023/07/08 09:37:46;;;;;;;8.30;5.85;;;25.50;89.90;;;;;;4999222;28;20037;-93
2023/07/08 09:40:19;;;;;;;11.85;7.15;;;25.50;89.80;;;;;;5000001;28;20507;-94
2023/07/08 09:42:49;;;;;;;8.63;5.13;;;25.60;89.90;;;;;;4999812;28;20037;-94
2023/07/08 09:45:19;;;;;;;10.57;5.28;;;25.70;89.90;;;;;;4979669;28;20022;-94
2023/07/08 09:47:45;;;;;;;7.95;4.95;;;25.70;89.70;;;;;;4979771;28;20061;-95
2023/07/08 09:50:24;;;;;;;7.78;4.72;;;25.80;90.00;;;;;;4963418;28;20046;-94
2023/07/08 09:52:53;;;;;;;9.73;4.90;;;25.80;89.40;;;;;;4979438;28;20023;-94
2023/07/08 09:55:19;;;;;;;8.38;5.28;;;25.90;89.50;;;;;;4980675;28;20500;-94
2023/07/08 09:57:48;;;;;;;7.32;4.97;;;25.90;89.70;;;;;;4980906;28;20117;-94
2023/07/08 10:00:17;;;;;;;6.60;4.65;;;26.00;89.20;;;;;;4980994;28;20061;-93
2023/07/08 10:02:49;;;;;;;7.68;5.03;;;26.10;88.30;;;;;;5000998;28;20033;-92
2023/07/08 10:05:37;;;;;;;8.23;4.75;;;26.20;88.90;;;;;;5000555;28;20049;-94
2023/07/08 10:08:15;;;;;;;8.23;4.97;;;26.20;87.50;;;;;;4983574;28;20022;-89
2023/07/08 10:10:41;;;;;;;9.13;5.18;;;26.30;87.00;;;;;;4999876;28;20365;-88
2023/07/08 10:13:22;;;;;;;8.15;4.88;;;26.40;86.70;;;;;;4999208;28;20168;-88
2023/07/08 10:16:09;;;;;;;8.43;5.00;;;26.40;86.40;;;;;;4983772;28;20508;-89
2023/07/08 10:18:35;;;;;;;9.60;5.15;;;26.50;86.60;;;;;;4979592;28;20030;-88
2023/07/08 10:21:10;;;;;;;8.32;4.80;;;26.60;86.50;;;;;;4947026;28;20031;-91
2023/07/08 10:24:10;;;;;;;6.95;4.47;;;26.60;85.80;;;;;;4985546;28;20136;-91
2023/07/08 10:26:38;;;;;;;11.85;4.97;;;26.70;86.60;;;;;;4999193;28;20133;-94
2023/07/08 10:29:34;;;;;;;9.68;4.85;;;26.80;87.40;;;;;;4999008;28;20362;-94
2023/07/08 10:32:24;;;;;;;6.75;4.97;;;26.90;87.30;;;;;;4998772;28;20105;-94
2023/07/08 10:34:50;;;;;;;;;;;26.90;87.30;;;;;;5000889;28;20026;-90
2023/07/08 10:37:28;;;;;;;8.73;4.90;;;27.00;87.20;;;;;;4998554;28;19905;-90
2023/07/08 10:40:12;;;;;;;8.13;5.30;;;27.00;87.20;;;;;;4998185;28;20029;-90
2023/07/08 10:42:47;;;;;;;8.57;4.82;;;27.10;86.90;;;;;;4998959;28;20028;-91
2023/07/08 10:45:23;;;;;;;8.73;5.43;;;27.10;86.80;;;;;;4998763;28;20034;-91
2023/07/08 10:48:17;;;;;;;10.60;5.07;;;27.20;86.40;;;;;;4998620;28;20022;-92
2023/07/08 10:51:13;;;;;;;7.75;4.70;;;27.30;85.80;;;;;;4998637;28;20037;-91
2023/07/08 10:54:09;;;;;;;9.07;5.35;;;27.30;86.20;;;;;;4982386;28;20388;-91
2023/07/08 10:56:51;;;;;;;7.38;4.95;;;27.40;85.90;;;;;;4998147;28;20037;-92
2023/07/08 10:59:35;;;;;;;8.40;5.20;;;27.50;86.00;;;;;;4997969;28;20025;-91
2023/07/08 11:02:35;;;;;;;8.60;5.65;;;27.50;86.00;;;;;;4997512;28;20030;-90
2023/07/08 11:05:25;;;;;;;8.33;5.17;;;27.60;86.60;;;;;;4997195;28;20054;-91
2023/07/08 11:08:31;;;;;;;8.38;5.22;;;27.70;86.40;;;;;;4996945;28;20288;-92
2023/07/08 11:11:03;;;;;;;8.40;4.85;;;27.70;85.60;;;;;;4989072;28;20025;-91
2023/07/08 11:13:31;;;;;;;8.77;5.60;;;27.80;85.10;;;;;;4993450;28;20103;-91
2023/07/08 11:16:32;;;;;;;9.73;5.55;;;27.90;84.00;;;;;;4990855;28;20022;-93
2023/07/08 11:19:11;;;;;;;10.02;5.65;;;27.90;83.50;;;;;;4966582;28;20511;-94
2023/07/08 11:21:50;;;;;;;8.80;5.57;;;28.10;84.40;;;;;;4995352;28;20022;-91
2023/07/08 11:24:28;;;;;;;8.45;5.32;;;28.10;83.60;;;;;;4996406;28;20037;-91
2023/07/08 11:26:58;;;;;;;8.00;5.20;;;28.10;83.20;;;;;;4997266;28;20262;-91
2023/07/08 11:29:45;;;;;;;8.75;5.20;;;28.20;83.30;;;;;;4989391;28;20056;-91
2023/07/08 11:32:15;;;;;;;11.77;5.63;;;28.30;83.70;;;;;;5004696;28;20082;-91
2023/07/08 11:34:44;;;;;;;9.35;6.03;;;28.40;83.00;;;;;;5010188;28;20021;-91
2023/07/08 11:37:11;;;;;;;7.88;5.20;;;28.40;82.40;;;;;;5005931;28;20116;-90
2023/07/08 11:39:45;;;;;;;6.97;4.80;;;28.50;82.50;;;;;;4999223;28;20075;-90
2023/07/08 11:42:25;;;;;;;12.05;5.22;;;28.60;81.40;;;;;;4980947;28;20065;-90
2023/07/08 11:44:55;;;;;;;8.37;5.63;;;28.60;79.30;;;;;;4998913;28;20062;-90
2023/07/08 11:47:36;;;;;;;9.45;5.18;;;28.70;78.60;;;;;;4996884;28;20306;-90
2023/07/08 11:50:02;;;;;;;8.70;4.90;;;28.90;79.30;;;;;;4996707;28;20026;-91
2023/07/08 11:52:29;;;;;;;9.40;5.47;;;28.90;80.40;;;;;;4980552;28;20022;-90
2023/07/08 11:55:02;;;;;;;8.63;5.68;;;29.00;80.60;;;;;;4997629;28;20079;-90
2023/07/08 11:57:38;;;;;;;8.95;5.50;;;29.10;81.00;;;;;;4996909;28;20145;-90
2023/07/08 12:00:24;;;;;;;8.80;5.55;;;29.20;79.70;;;;;;4996882;28;20290;-90
2023/07/08 12:02:58;;;;;;;9.10;5.90;;;29.20;78.70;;;;;;4996898;28;20104;-89
2023/07/08 12:05:38;;;;;;;8.52;5.40;;;29.30;78.60;;;;;;4996124;28;20062;-90
2023/07/08 12:08:13;;;;;;;8.45;5.50;;;29.40;78.90;;;;;;4996774;28;20061;-88
2023/07/08 12:10:52;;;;;;;7.65;5.43;;;29.50;78.30;;;;;;4996430;28;20029;-88
2023/07/08 12:13:21;;;;;;;10.68;5.93;;;29.50;78.60;;;;;;4996598;28;20144;-89
2023/07/08 12:15:47;;;;;;;9.27;5.35;;;29.60;78.20;;;;;;5014014;28;20080;-88
2023/07/08 12:18:16;;;;;;;7.13;5.30;;;29.60;78.80;;;;;;4980016;28;20022;-87
2023/07/08 12:20:44;;;;;;;8.93;6.00;;;29.60;79.40;;;;;;4996055;28;20124;-88
2023/07/08 12:23:20;;;;;;;9.02;5.80;;;29.70;79.10;;;;;;4999017;28;20046;-94
2023/07/08 12:25:47;;;;;;;10.38;5.43;;;29.70;77.80;;;;;;5003440;28;20434;-95
2023/07/08 12:28:14;;;;;;;9.10;5.00;;;29.70;76.90;;;;;;4987069;28;20030;-96
2023/07/08 12:30:42;;;;;;;8.23;5.22;;;29.80;75.70;;;;;;4987230;28;20045;-96
2023/07/08 12:33:32;;;;;;;8.07;5.25;;;29.80;73.50;;;;;;5003467;28;20022;-95
2023/07/08 12:36:00;;;;;;;8.05;5.68;;;29.90;75.30;;;;;;4990183;28;20132;-95
2023/07/08 12:38:37;;;;;;;9.82;5.68;;;29.90;75.90;;;;;;5001228;28;20415;-96
2023/07/08 12:41:10;;;;;;;8.45;5.32;;;30.00;75.90;;;;;;5000829;28;20121;-96
2023/07/08 12:43:35;;;;;;;9.70;5.80;;;30.00;76.40;;;;;;5000379;28;20121;-96
2023/07/08 12:46:16;;;;;;;9.57;5.75;;;30.00;76.80;;;;;;5000324;28;20022;-94
2023/07/08 12:48:41;;;;;;;;;;;30.10;77.20;;;;;;5001997;28;20368;-94
2023/07/08 12:51:14;;;;;;;7.63;5.53;;;30.20;77.20;;;;;;5001018;28;19912;-96
2023/07/08 12:53:40;;;;;;;8.40;5.97;;;30.20;76.10;;;;;;5001256;28;20430;-95
2023/07/08 12:56:06;;;;;;;8.43;5.22;;;30.20;76.00;;;;;;4984400;28;20424;-95
2023/07/08 12:58:38;;;;;;;10.20;5.95;;;30.20;76.10;;;;;;4984490;28;20034;-89
2023/07/08 13:01:06;;;;;;;8.88;5.82;;;30.30;75.40;;;;;;5000185;28;20022;-93